sensor_id;sensor_type;location;lat;lon;timestamp;P1;durP1;ratioP1;P2;durP2;ratioP2
13085;SDS011;6609;49.882;8.664;2023-03-12T00:00:02;4.50;;;2.83;;
13085;SDS011;6609;49.882;8.664;2023-03-12T00:02:32;6.32;;;2.47;;
13085;SDS011;6609;49.882;8.664;2023-03-12T00:04:59;6.38;;;3.22;;
13085;SDS011;6609;49.882;8.664;2023-03-12T00:07:26;5.47;;;2.83;;
13085;SDS011;6609;49.882;8.664;2023-03-12T00:09:53;9.00;;;3.47;;
13085;SDS011;6609;49.882;8.664;2023-03-12T00:12:20;5.03;;;2.58;;
13085;SDS011;6609;49.882;8.664;2023-03-12T00:14:48;5.63;;;3.20;;
13085;SDS011;6609;49.882;8.664;2023-03-12T00:17:15;5.22;;;3.00;;
13085;SDS011;6609;49.882;8.664;2023-03-12T00:19:41;7.07;;;3.15;;
13085;SDS011;6609;49.882;8.664;2023-03-12T00:22:09;4.25;;;2.55;;
13085;SDS011;6609;49.882;8.664;2023-03-12T00:24:36;9.18;;;3.50;;
13085;SDS011;6609;49.882;8.664;2023-03-12T00:27:02;9.57;;;3.47;;
13085;SDS011;6609;49.882;8.664;2023-03-12T00:29:29;4.30;;;2.55;;
13085;SDS011;6609;49.882;8.664;2023-03-12T00:31:58;5.38;;;2.67;;
13085;SDS011;6609;49.882;8.664;2023-03-12T00:34:24;6.43;;;3.10;;
13085;SDS011;6609;49.882;8.664;2023-03-12T00:36:51;4.93;;;3.50;;
13085;SDS011;6609;49.882;8.664;2023-03-12T00:39:17;3.45;;;2.50;;
13085;SDS011;6609;49.882;8.664;2023-03-12T00:41:44;6.25;;;3.20;;
13085;SDS011;6609;49.882;8.664;2023-03-12T00:44:11;11.77;;;3.58;;
13085;SDS011;6609;49.882;8.664;2023-03-12T00:46:38;7.45;;;2.80;;
13085;SDS011;6609;49.882;8.664;2023-03-12T00:49:06;4.70;;;2.83;;
13085;SDS011;6609;49.882;8.664;2023-03-12T00:51:33;8.02;;;3.03;;
13085;SDS011;6609;49.882;8.664;2023-03-12T00:54:00;10.82;;;4.03;;
13085;SDS011;6609;49.882;8.664;2023-03-12T00:56:27;7.10;;;3.03;;
13085;SDS011;6609;49.882;8.664;2023-03-12T00:58:54;6.10;;;3.53;;
13085;SDS011;6609;49.882;8.664;2023-03-12T01:01:21;6.65;;;3.40;;
13085;SDS011;6609;49.882;8.664;2023-03-12T01:03:53;11.10;;;3.33;;
13085;SDS011;6609;49.882;8.664;2023-03-12T01:06:23;11.30;;;2.78;;
13085;SDS011;6609;49.882;8.664;2023-03-12T01:08:51;11.13;;;3.42;;
13085;SDS011;6609;49.882;8.664;2023-03-12T01:11:19;12.85;;;3.28;;
13085;SDS011;6609;49.882;8.664;2023-03-12T01:13:46;5.25;;;2.83;;
13085;SDS011;6609;49.882;8.664;2023-03-12T01:16:14;8.43;;;2.50;;
13085;SDS011;6609;49.882;8.664;2023-03-12T01:18:41;4.50;;;2.50;;
13085;SDS011;6609;49.882;8.664;2023-03-12T01:21:08;7.97;;;2.78;;
13085;SDS011;6609;49.882;8.664;2023-03-12T01:23:37;9.07;;;3.30;;
13085;SDS011;6609;49.882;8.664;2023-03-12T01:26:04;6.22;;;3.33;;
13085;SDS011;6609;49.882;8.664;2023-03-12T01:28:31;6.10;;;2.97;;
13085;SDS011;6609;49.882;8.664;2023-03-12T01:30:57;7.18;;;2.67;;
13085;SDS011;6609;49.882;8.664;2023-03-12T01:33:24;5.30;;;2.40;;
13085;SDS011;6609;49.882;8.664;2023-03-12T01:35:51;8.98;;;3.40;;
13085;SDS011;6609;49.882;8.664;2023-03-12T01:38:18;6.75;;;2.60;;
13085;SDS011;6609;49.882;8.664;2023-03-12T01:40:47;5.35;;;2.55;;
13085;SDS011;6609;49.882;8.664;2023-03-12T01:43:20;6.38;;;2.85;;
13085;SDS011;6609;49.882;8.664;2023-03-12T01:46:04;5.82;;;2.78;;
13085;SDS011;6609;49.882;8.664;2023-03-12T01:48:49;8.20;;;2.92;;
13085;SDS011;6609;49.882;8.664;2023-03-12T01:51:17;8.85;;;2.78;;
13085;SDS011;6609;49.882;8.664;2023-03-12T01:53:45;6.47;;;2.60;;
13085;SDS011;6609;49.882;8.664;2023-03-12T01:56:15;6.97;;;2.58;;
13085;SDS011;6609;49.882;8.664;2023-03-12T01:58:45;10.50;;;3.17;;
13085;SDS011;6609;49.882;8.664;2023-03-12T02:01:13;5.70;;;3.22;;
13085;SDS011;6609;49.882;8.664;2023-03-12T02:03:43;11.57;;;3.08;;
13085;SDS011;6609;49.882;8.664;2023-03-12T02:06:12;6.82;;;3.22;;
13085;SDS011;6609;49.882;8.664;2023-03-12T02:08:41;13.40;;;3.90;;
13085;SDS011;6609;49.882;8.664;2023-03-12T02:11:10;9.43;;;2.92;;
13085;SDS011;6609;49.882;8.664;2023-03-12T02:13:38;4.78;;;2.40;;
13085;SDS011;6609;49.882;8.664;2023-03-12T02:16:05;8.82;;;2.92;;
13085;SDS011;6609;49.882;8.664;2023-03-12T02:18:32;8.77;;;3.08;;
13085;SDS011;6609;49.882;8.664;2023-03-12T02:21:02;13.10;;;2.97;;
13085;SDS011;6609;49.882;8.664;2023-03-12T02:23:41;5.80;;;2.80;;
13085;SDS011;6609;49.882;8.664;2023-03-12T02:26:14;4.72;;;2.95;;
13085;SDS011;6609;49.882;8.664;2023-03-12T02:28:44;5.70;;;2.28;;
13085;SDS011;6609;49.882;8.664;2023-03-12T02:31:11;7.80;;;3.25;;
13085;SDS011;6609;49.882;8.664;2023-03-12T02:33:40;9.38;;;3.22;;
13085;SDS011;6609;49.882;8.664;2023-03-12T02:36:07;6.45;;;2.55;;
13085;SDS011;6609;49.882;8.664;2023-03-12T02:38:39;6.15;;;2.88;;
13085;SDS011;6609;49.882;8.664;2023-03-12T02:41:13;5.40;;;2.70;;
13085;SDS011;6609;49.882;8.664;2023-03-12T02:43:44;4.30;;;2.78;;
13085;SDS011;6609;49.882;8.664;2023-03-12T02:46:14;5.93;;;2.63;;
13085;SDS011;6609;49.882;8.664;2023-03-12T02:48:41;7.40;;;2.63;;
13085;SDS011;6609;49.882;8.664;2023-03-12T02:51:08;6.65;;;2.83;;
13085;SDS011;6609;49.882;8.664;2023-03-12T02:53:35;10.05;;;2.90;;
13085;SDS011;6609;49.882;8.664;2023-03-12T02:56:03;3.50;;;2.47;;
13085;SDS011;6609;49.882;8.664;2023-03-12T02:58:31;5.45;;;2.75;;
13085;SDS011;6609;49.882;8.664;2023-03-12T03:00:58;6.68;;;2.90;;
13085;SDS011;6609;49.882;8.664;2023-03-12T03:03:24;4.95;;;2.72;;
13085;SDS011;6609;49.882;8.664;2023-03-12T03:05:51;6.38;;;4.07;;
13085;SDS011;6609;49.882;8.664;2023-03-12T03:08:19;5.65;;;2.50;;
13085;SDS011;6609;49.882;8.664;2023-03-12T03:10:46;5.25;;;2.00;;
13085;SDS011;6609;49.882;8.664;2023-03-12T03:13:13;5.85;;;2.53;;
13085;SDS011;6609;49.882;8.664;2023-03-12T03:15:41;6.55;;;2.35;;
13085;SDS011;6609;49.882;8.664;2023-03-12T03:18:10;4.38;;;2.13;;
13085;SDS011;6609;49.882;8.664;2023-03-12T03:20:37;6.30;;;2.53;;
13085;SDS011;6609;49.882;8.664;2023-03-12T03:23:04;4.97;;;2.42;;
13085;SDS011;6609;49.882;8.664;2023-03-12T03:25:31;9.30;;;3.08;;
13085;SDS011;6609;49.882;8.664;2023-03-12T03:27:58;6.65;;;3.33;;
13085;SDS011;6609;49.882;8.664;2023-03-12T03:30:25;7.00;;;3.60;;
13085;SDS011;6609;49.882;8.664;2023-03-12T03:32:53;7.53;;;3.65;;
13085;SDS011;6609;49.882;8.664;2023-03-12T03:35:19;9.05;;;3.38;;
13085;SDS011;6609;49.882;8.664;2023-03-12T03:37:48;8.20;;;3.20;;
13085;SDS011;6609;49.882;8.664;2023-03-12T03:40:15;4.43;;;2.38;;
13085;SDS011;6609;49.882;8.664;2023-03-12T03:42:42;6.15;;;2.70;;
13085;SDS011;6609;49.882;8.664;2023-03-12T03:45:09;5.70;;;3.33;;
13085;SDS011;6609;49.882;8.664;2023-03-12T03:47:36;11.32;;;3.33;;
13085;SDS011;6609;49.882;8.664;2023-03-12T03:50:06;5.07;;;2.95;;
13085;SDS011;6609;49.882;8.664;2023-03-12T03:52:34;4.40;;;2.78;;
13085;SDS011;6609;49.882;8.664;2023-03-12T03:55:01;8.25;;;3.10;;
13085;SDS011;6609;49.882;8.664;2023-03-12T03:57:28;4.72;;;2.17;;
13085;SDS011;6609;49.882;8.664;2023-03-12T03:59:55;6.20;;;2.63;;
13085;SDS011;6609;49.882;8.664;2023-03-12T04:02:24;9.00;;;2.53;;
13085;SDS011;6609;49.882;8.664;2023-03-12T04:04:51;5.00;;;2.47;;
13085;SDS011;6609;49.882;8.664;2023-03-12T04:07:19;4.43;;;2.60;;
13085;SDS011;6609;49.882;8.664;2023-03-12T04:09:46;10.73;;;3.15;;
13085;SDS011;6609;49.882;8.664;2023-03-12T04:12:15;5.65;;;3.13;;
13085;SDS011;6609;49.882;8.664;2023-03-12T04:14:42;5.03;;;2.88;;
13085;SDS011;6609;49.882;8.664;2023-03-12T04:17:10;7.55;;;2.78;;
13085;SDS011;6609;49.882;8.664;2023-03-12T04:19:37;6.57;;;2.38;;
13085;SDS011;6609;49.882;8.664;2023-03-12T04:22:04;3.50;;;2.35;;
13085;SDS011;6609;49.882;8.664;2023-03-12T04:24:32;5.63;;;2.55;;
13085;SDS011;6609;49.882;8.664;2023-03-12T04:26:59;5.03;;;2.85;;
13085;SDS011;6609;49.882;8.664;2023-03-12T04:29:26;6.03;;;2.90;;
13085;SDS011;6609;49.882;8.664;2023-03-12T04:31:52;4.95;;;2.50;;
13085;SDS011;6609;49.882;8.664;2023-03-12T04:34:19;4.80;;;2.40;;
13085;SDS011;6609;49.882;8.664;2023-03-12T04:36:46;4.25;;;2.20;;
13085;SDS011;6609;49.882;8.664;2023-03-12T04:39:15;4.10;;;2.35;;
13085;SDS011;6609;49.882;8.664;2023-03-12T04:41:43;5.38;;;2.67;;
13085;SDS011;6609;49.882;8.664;2023-03-12T04:44:10;3.67;;;2.40;;
13085;SDS011;6609;49.882;8.664;2023-03-12T04:46:37;5.43;;;2.45;;
13085;SDS011;6609;49.882;8.664;2023-03-12T04:49:05;3.60;;;2.53;;
13085;SDS011;6609;49.882;8.664;2023-03-12T04:51:31;8.05;;;3.03;;
13085;SDS011;6609;49.882;8.664;2023-03-12T04:53:58;6.75;;;3.15;;
13085;SDS011;6609;49.882;8.664;2023-03-12T04:56:25;7.13;;;2.75;;
13085;SDS011;6609;49.882;8.664;2023-03-12T04:58:54;7.03;;;2.85;;
13085;SDS011;6609;49.882;8.664;2023-03-12T05:01:22;6.90;;;2.70;;
13085;SDS011;6609;49.882;8.664;2023-03-12T05:03:50;5.97;;;2.60;;
13085;SDS011;6609;49.882;8.664;2023-03-12T05:06:17;6.55;;;2.40;;
13085;SDS011;6609;49.882;8.664;2023-03-12T05:08:44;6.35;;;2.75;;
13085;SDS011;6609;49.882;8.664;2023-03-12T05:11:11;4.82;;;2.42;;
13085;SDS011;6609;49.882;8.664;2023-03-12T05:13:39;3.65;;;1.98;;
13085;SDS011;6609;49.882;8.664;2023-03-12T05:16:08;3.53;;;2.30;;
13085;SDS011;6609;49.882;8.664;2023-03-12T05:18:35;6.13;;;2.47;;
13085;SDS011;6609;49.882;8.664;2023-03-12T05:21:03;4.85;;;2.42;;
13085;SDS011;6609;49.882;8.664;2023-03-12T05:23:31;6.78;;;2.45;;
13085;SDS011;6609;49.882;8.664;2023-03-12T05:25:58;6.45;;;2.83;;
13085;SDS011;6609;49.882;8.664;2023-03-12T05:28:26;7.13;;;2.67;;
13085;SDS011;6609;49.882;8.664;2023-03-12T05:30:53;2.90;;;2.30;;
13085;SDS011;6609;49.882;8.664;2023-03-12T05:33:22;3.28;;;2.53;;
13085;SDS011;6609;49.882;8.664;2023-03-12T05:35:49;4.88;;;2.72;;
13085;SDS011;6609;49.882;8.664;2023-03-12T05:38:16;4.22;;;2.38;;
13085;SDS011;6609;49.882;8.664;2023-03-12T05:40:49;5.32;;;2.70;;
13085;SDS011;6609;49.882;8.664;2023-03-12T05:43:17;4.47;;;2.22;;
13085;SDS011;6609;49.882;8.664;2023-03-12T05:45:44;8.63;;;2.30;;
13085;SDS011;6609;49.882;8.664;2023-03-12T05:48:11;2.40;;;2.17;;
13085;SDS011;6609;49.882;8.664;2023-03-12T05:50:40;9.13;;;2.85;;
13085;SDS011;6609;49.882;8.664;2023-03-12T05:53:06;5.70;;;3.00;;
13085;SDS011;6609;49.882;8.664;2023-03-12T05:55:34;5.25;;;2.70;;
13085;SDS011;6609;49.882;8.664;2023-03-12T05:58:01;5.40;;;2.58;;
13085;SDS011;6609;49.882;8.664;2023-03-12T06:00:28;4.05;;;2.65;;
13085;SDS011;6609;49.882;8.664;2023-03-12T06:02:55;4.80;;;2.85;;
13085;SDS011;6609;49.882;8.664;2023-03-12T06:05:22;5.88;;;2.35;;
13085;SDS011;6609;49.882;8.664;2023-03-12T06:07:50;6.38;;;2.22;;
13085;SDS011;6609;49.882;8.664;2023-03-12T06:10:17;4.53;;;2.33;;
13085;SDS011;6609;49.882;8.664;2023-03-12T06:12:44;5.40;;;2.42;;
13085;SDS011;6609;49.882;8.664;2023-03-12T06:15:11;7.68;;;2.90;;
13085;SDS011;6609;49.882;8.664;2023-03-12T06:17:38;6.80;;;2.25;;
13085;SDS011;6609;49.882;8.664;2023-03-12T06:20:05;3.88;;;2.35;;
13085;SDS011;6609;49.882;8.664;2023-03-12T06:22:33;2.95;;;2.28;;
13085;SDS011;6609;49.882;8.664;2023-03-12T06:25:01;5.13;;;2.60;;
13085;SDS011;6609;49.882;8.664;2023-03-12T06:27:27;5.28;;;2.30;;
13085;SDS011;6609;49.882;8.664;2023-03-12T06:29:56;3.03;;;2.40;;
13085;SDS011;6609;49.882;8.664;2023-03-12T06:32:23;8.50;;;2.50;;
13085;SDS011;6609;49.882;8.664;2023-03-12T06:34:50;4.65;;;2.92;;
13085;SDS011;6609;49.882;8.664;2023-03-12T06:37:17;4.88;;;3.80;;
13085;SDS011;6609;49.882;8.664;2023-03-12T06:39:44;5.25;;;3.10;;
13085;SDS011;6609;49.882;8.664;2023-03-12T06:42:12;8.35;;;3.35;;
13085;SDS011;6609;49.882;8.664;2023-03-12T06:44:39;6.57;;;4.18;;
13085;SDS011;6609;49.882;8.664;2023-03-12T06:47:06;6.18;;;2.70;;
13085;SDS011;6609;49.882;8.664;2023-03-12T06:49:33;10.82;;;3.00;;
13085;SDS011;6609;49.882;8.664;2023-03-12T06:52:00;18.75;;;10.00;;
13085;SDS011;6609;49.882;8.664;2023-03-12T06:54:27;5.95;;;3.65;;
13085;SDS011;6609;49.882;8.664;2023-03-12T06:56:54;6.55;;;3.13;;
13085;SDS011;6609;49.882;8.664;2023-03-12T06:59:24;5.78;;;2.50;;
13085;SDS011;6609;49.882;8.664;2023-03-12T07:01:52;6.35;;;3.10;;
13085;SDS011;6609;49.882;8.664;2023-03-12T07:04:19;4.43;;;3.08;;
13085;SDS011;6609;49.882;8.664;2023-03-12T07:06:46;5.50;;;3.03;;
13085;SDS011;6609;49.882;8.664;2023-03-12T07:09:15;7.75;;;4.05;;
13085;SDS011;6609;49.882;8.664;2023-03-12T07:11:42;7.00;;;4.07;;
13085;SDS011;6609;49.882;8.664;2023-03-12T07:14:09;7.38;;;4.07;;
13085;SDS011;6609;49.882;8.664;2023-03-12T07:16:37;5.68;;;3.42;;
13085;SDS011;6609;49.882;8.664;2023-03-12T07:19:04;10.07;;;5.07;;
13085;SDS011;6609;49.882;8.664;2023-03-12T07:21:31;8.45;;;4.82;;
13085;SDS011;6609;49.882;8.664;2023-03-12T07:23:58;6.03;;;3.65;;
13085;SDS011;6609;49.882;8.664;2023-03-12T07:26:30;3.73;;;2.23;;
13085;SDS011;6609;49.882;8.664;2023-03-12T07:28:57;5.17;;;2.53;;
13085;SDS011;6609;49.882;8.664;2023-03-12T07:31:24;10.27;;;3.60;;
13085;SDS011;6609;49.882;8.664;2023-03-12T07:33:53;7.82;;;2.88;;
13085;SDS011;6609;49.882;8.664;2023-03-12T07:36:20;5.50;;;3.03;;
13085;SDS011;6609;49.882;8.664;2023-03-12T07:38:47;5.43;;;3.33;;
13085;SDS011;6609;49.882;8.664;2023-03-12T07:41:13;6.40;;;2.83;;
13085;SDS011;6609;49.882;8.664;2023-03-12T07:43:40;7.63;;;3.05;;
13085;SDS011;6609;49.882;8.664;2023-03-12T07:46:07;4.30;;;2.83;;
13085;SDS011;6609;49.882;8.664;2023-03-12T07:48:34;10.85;;;2.50;;
13085;SDS011;6609;49.882;8.664;2023-03-12T07:51:02;3.42;;;2.50;;
13085;SDS011;6609;49.882;8.664;2023-03-12T07:53:29;4.85;;;2.78;;
13085;SDS011;6609;49.882;8.664;2023-03-12T07:55:56;5.30;;;2.83;;
13085;SDS011;6609;49.882;8.664;2023-03-12T07:58:23;5.78;;;2.80;;
13085;SDS011;6609;49.882;8.664;2023-03-12T08:00:51;7.05;;;3.17;;
13085;SDS011;6609;49.882;8.664;2023-03-12T08:03:20;5.20;;;3.40;;
13085;SDS011;6609;49.882;8.664;2023-03-12T08:05:54;6.50;;;3.45;;
13085;SDS011;6609;49.882;8.664;2023-03-12T08:08:22;7.07;;;3.43;;
13085;SDS011;6609;49.882;8.664;2023-03-12T08:10:49;7.60;;;2.95;;
13085;SDS011;6609;49.882;8.664;2023-03-12T08:13:16;15.48;;;9.02;;
13085;SDS011;6609;49.882;8.664;2023-03-12T08:15:43;10.05;;;3.80;;
13085;SDS011;6609;49.882;8.664;2023-03-12T08:18:10;6.43;;;3.40;;
13085;SDS011;6609;49.882;8.664;2023-03-12T08:20:37;7.60;;;3.40;;
13085;SDS011;6609;49.882;8.664;2023-03-12T08:23:04;4.88;;;2.60;;
13085;SDS011;6609;49.882;8.664;2023-03-12T08:25:32;10.85;;;4.30;;
13085;SDS011;6609;49.882;8.664;2023-03-12T08:28:00;6.25;;;2.70;;
13085;SDS011;6609;49.882;8.664;2023-03-12T08:30:27;7.40;;;3.90;;
13085;SDS011;6609;49.882;8.664;2023-03-12T08:32:54;9.37;;;6.70;;
13085;SDS011;6609;49.882;8.664;2023-03-12T08:35:22;8.98;;;4.00;;
13085;SDS011;6609;49.882;8.664;2023-03-12T08:37:48;6.90;;;4.10;;
13085;SDS011;6609;49.882;8.664;2023-03-12T08:40:15;8.00;;;4.20;;
13085;SDS011;6609;49.882;8.664;2023-03-12T08:42:44;8.05;;;4.45;;
13085;SDS011;6609;49.882;8.664;2023-03-12T08:45:11;10.10;;;4.07;;
13085;SDS011;6609;49.882;8.664;2023-03-12T08:47:38;7.90;;;4.73;;
13085;SDS011;6609;49.882;8.664;2023-03-12T08:50:06;7.57;;;5.90;;
13085;SDS011;6609;49.882;8.664;2023-03-12T08:52:33;10.07;;;5.57;;
13085;SDS011;6609;49.882;8.664;2023-03-12T08:55:00;7.97;;;5.87;;
13085;SDS011;6609;49.882;8.664;2023-03-12T08:57:27;9.20;;;5.67;;
13085;SDS011;6609;49.882;8.664;2023-03-12T08:59:55;10.93;;;6.70;;
13085;SDS011;6609;49.882;8.664;2023-03-12T09:02:22;9.37;;;6.93;;
13085;SDS011;6609;49.882;8.664;2023-03-12T09:04:49;11.85;;;6.88;;
13085;SDS011;6609;49.882;8.664;2023-03-12T09:07:16;10.43;;;6.30;;
13085;SDS011;6609;49.882;8.664;2023-03-12T09:09:43;13.30;;;7.37;;
13085;SDS011;6609;49.882;8.664;2023-03-12T09:12:10;8.80;;;6.87;;
13085;SDS011;6609;49.882;8.664;2023-03-12T09:14:37;9.43;;;6.63;;
13085;SDS011;6609;49.882;8.664;2023-03-12T09:17:06;10.53;;;7.10;;
13085;SDS011;6609;49.882;8.664;2023-03-12T09:19:32;9.38;;;6.65;;
13085;SDS011;6609;49.882;8.664;2023-03-12T09:21:59;12.20;;;7.63;;
13085;SDS011;6609;49.882;8.664;2023-03-12T09:24:26;9.07;;;7.83;;
13085;SDS011;6609;49.882;8.664;2023-03-12T09:26:53;12.95;;;8.05;;
13085;SDS011;6609;49.882;8.664;2023-03-12T09:29:20;12.97;;;7.60;;
13085;SDS011;6609;49.882;8.664;2023-03-12T09:31:48;15.13;;;7.93;;
13085;SDS011;6609;49.882;8.664;2023-03-12T09:34:17;10.97;;;7.33;;
13085;SDS011;6609;49.882;8.664;2023-03-12T09:36:44;15.10;;;7.47;;
13085;SDS011;6609;49.882;8.664;2023-03-12T09:39:11;10.10;;;7.50;;
13085;SDS011;6609;49.882;8.664;2023-03-12T09:41:38;15.20;;;10.40;;
13085;SDS011;6609;49.882;8.664;2023-03-12T09:44:09;11.07;;;7.30;;
13085;SDS011;6609;49.882;8.664;2023-03-12T09:46:37;12.87;;;7.90;;
13085;SDS011;6609;49.882;8.664;2023-03-12T09:49:10;13.67;;;7.73;;
13085;SDS011;6609;49.882;8.664;2023-03-12T09:51:44;14.00;;;8.67;;
13085;SDS011;6609;49.882;8.664;2023-03-12T09:54:20;12.57;;;8.00;;
13085;SDS011;6609;49.882;8.664;2023-03-12T09:56:50;10.97;;;7.13;;
13085;SDS011;6609;49.882;8.664;2023-03-12T09:59:18;13.50;;;7.53;;
13085;SDS011;6609;49.882;8.664;2023-03-12T10:01:46;12.50;;;6.83;;
13085;SDS011;6609;49.882;8.664;2023-03-12T10:04:19;10.73;;;7.50;;
13085;SDS011;6609;49.882;8.664;2023-03-12T10:06:56;10.43;;;7.53;;
13085;SDS011;6609;49.882;8.664;2023-03-12T10:12:31;11.97;;;6.50;;
13085;SDS011;6609;49.882;8.664;2023-03-12T10:15:13;12.97;;;7.10;;
13085;SDS011;6609;49.882;8.664;2023-03-12T10:17:48;11.47;;;6.83;;
13085;SDS011;6609;49.882;8.664;2023-03-12T10:20:32;10.60;;;7.20;;
13085;SDS011;6609;49.882;8.664;2023-03-12T10:23:27;12.30;;;6.63;;
13085;SDS011;6609;49.882;8.664;2023-03-12T10:26:06;12.07;;;7.17;;
13085;SDS011;6609;49.882;8.664;2023-03-12T10:28:40;14.20;;;7.20;;
13085;SDS011;6609;49.882;8.664;2023-03-12T10:31:12;13.23;;;7.13;;
13085;SDS011;6609;49.882;8.664;2023-03-12T10:33:45;14.17;;;7.33;;
13085;SDS011;6609;49.882;8.664;2023-03-12T10:36:14;10.07;;;6.87;;
13085;SDS011;6609;49.882;8.664;2023-03-12T10:38:45;11.93;;;7.80;;
13085;SDS011;6609;49.882;8.664;2023-03-12T10:41:14;13.93;;;7.57;;
13085;SDS011;6609;49.882;8.664;2023-03-12T10:43:43;14.03;;;8.40;;
13085;SDS011;6609;49.882;8.664;2023-03-12T10:51:57;12.50;;;8.80;;
13085;SDS011;6609;49.882;8.664;2023-03-12T10:54:28;13.10;;;8.93;;
13085;SDS011;6609;49.882;8.664;2023-03-12T10:56:57;12.70;;;9.30;;
13085;SDS011;6609;49.882;8.664;2023-03-12T10:59:26;13.93;;;8.67;;
13085;SDS011;6609;49.882;8.664;2023-03-12T11:01:55;13.83;;;8.93;;
13085;SDS011;6609;49.882;8.664;2023-03-12T11:04:22;19.37;;;9.57;;
13085;SDS011;6609;49.882;8.664;2023-03-12T11:07:15;12.43;;;9.40;;
13085;SDS011;6609;49.882;8.664;2023-03-12T11:10:02;14.70;;;8.60;;
13085;SDS011;6609;49.882;8.664;2023-03-12T11:12:57;14.33;;;9.50;;
13085;SDS011;6609;49.882;8.664;2023-03-12T11:15:27;10.83;;;8.87;;
13085;SDS011;6609;49.882;8.664;2023-03-12T11:20:41;14.83;;;9.20;;
13085;SDS011;6609;49.882;8.664;2023-03-12T11:23:12;13.60;;;9.50;;
13085;SDS011;6609;49.882;8.664;2023-03-12T11:25:41;13.80;;;9.03;;
13085;SDS011;6609;49.882;8.664;2023-03-12T11:28:11;13.73;;;9.40;;
13085;SDS011;6609;49.882;8.664;2023-03-12T11:30:45;11.27;;;8.43;;
13085;SDS011;6609;49.882;8.664;2023-03-12T11:33:13;12.93;;;9.20;;
13085;SDS011;6609;49.882;8.664;2023-03-12T11:35:42;12.80;;;9.70;;
13085;SDS011;6609;49.882;8.664;2023-03-12T11:38:16;13.37;;;9.13;;
13085;SDS011;6609;49.882;8.664;2023-03-12T11:41:00;12.37;;;9.47;;
13085;SDS011;6609;49.882;8.664;2023-03-12T11:43:38;14.57;;;10.13;;
13085;SDS011;6609;49.882;8.664;2023-03-12T11:46:27;13.37;;;9.10;;
13085;SDS011;6609;49.882;8.664;2023-03-12T11:49:05;13.83;;;8.83;;
13085;SDS011;6609;49.882;8.664;2023-03-12T11:51:42;12.30;;;8.80;;
13085;SDS011;6609;49.882;8.664;2023-03-12T11:57:16;12.97;;;9.10;;
13085;SDS011;6609;49.882;8.664;2023-03-12T11:59:55;12.87;;;9.53;;
13085;SDS011;6609;49.882;8.664;2023-03-12T12:02:38;12.33;;;9.90;;
13085;SDS011;6609;49.882;8.664;2023-03-12T12:05:30;13.27;;;9.87;;
13085;SDS011;6609;49.882;8.664;2023-03-12T12:08:08;13.77;;;9.13;;
13085;SDS011;6609;49.882;8.664;2023-03-12T12:10:54;12.80;;;9.10;;
13085;SDS011;6609;49.882;8.664;2023-03-12T12:13:28;12.03;;;8.47;;
13085;SDS011;6609;49.882;8.664;2023-03-12T12:16:06;12.13;;;9.40;;
13085;SDS011;6609;49.882;8.664;2023-03-12T12:18:47;12.17;;;9.87;;
13085;SDS011;6609;49.882;8.664;2023-03-12T12:21:26;15.73;;;9.77;;
13085;SDS011;6609;49.882;8.664;2023-03-12T12:24:04;13.67;;;9.40;;
13085;SDS011;6609;49.882;8.664;2023-03-12T12:26:42;10.60;;;8.90;;
13085;SDS011;6609;49.882;8.664;2023-03-12T12:29:24;16.00;;;10.23;;
13085;SDS011;6609;49.882;8.664;2023-03-12T12:31:57;13.10;;;8.87;;
13085;SDS011;6609;49.882;8.664;2023-03-12T12:34:34;14.10;;;10.00;;
13085;SDS011;6609;49.882;8.664;2023-03-12T12:40:23;11.57;;;8.87;;
13085;SDS011;6609;49.882;8.664;2023-03-12T12:42:57;14.30;;;9.13;;
13085;SDS011;6609;49.882;8.664;2023-03-12T12:45:30;12.57;;;8.23;;
13085;SDS011;6609;49.882;8.664;2023-03-12T12:47:58;13.83;;;9.43;;
13085;SDS011;6609;49.882;8.664;2023-03-12T12:50:28;14.27;;;8.27;;
13085;SDS011;6609;49.882;8.664;2023-03-12T12:52:59;12.90;;;9.07;;
13085;SDS011;6609;49.882;8.664;2023-03-12T12:55:33;13.27;;;8.77;;
13085;SDS011;6609;49.882;8.664;2023-03-12T12:58:06;11.40;;;8.13;;
13085;SDS011;6609;49.882;8.664;2023-03-12T13:00:41;10.47;;;8.77;;
13085;SDS011;6609;49.882;8.664;2023-03-12T13:03:15;10.47;;;7.63;;
13085;SDS011;6609;49.882;8.664;2023-03-12T13:05:45;14.57;;;8.57;;
13085;SDS011;6609;49.882;8.664;2023-03-12T13:08:35;13.67;;;8.57;;
13085;SDS011;6609;49.882;8.664;2023-03-12T13:11:22;16.57;;;13.87;;
13085;SDS011;6609;49.882;8.664;2023-03-12T13:13:53;11.83;;;8.47;;
13085;SDS011;6609;49.882;8.664;2023-03-12T13:16:49;14.73;;;8.37;;
13085;SDS011;6609;49.882;8.664;2023-03-12T13:19:32;13.67;;;8.00;;
13085;SDS011;6609;49.882;8.664;2023-03-12T13:22:08;17.47;;;12.20;;
13085;SDS011;6609;49.882;8.664;2023-03-12T13:24:41;11.77;;;8.10;;
13085;SDS011;6609;49.882;8.664;2023-03-12T13:27:16;13.60;;;8.60;;
13085;SDS011;6609;49.882;8.664;2023-03-12T13:29:45;11.37;;;7.23;;
13085;SDS011;6609;49.882;8.664;2023-03-12T13:32:36;14.90;;;7.97;;
13085;SDS011;6609;49.882;8.664;2023-03-12T13:35:35;12.43;;;8.03;;
13085;SDS011;6609;49.882;8.664;2023-03-12T13:38:03;15.77;;;8.00;;
13085;SDS011;6609;49.882;8.664;2023-03-12T13:40:39;11.90;;;7.53;;
13085;SDS011;6609;49.882;8.664;2023-03-12T13:43:39;13.20;;;7.43;;
13085;SDS011;6609;49.882;8.664;2023-03-12T13:46:07;13.70;;;7.90;;
13085;SDS011;6609;49.882;8.664;2023-03-12T13:48:47;12.83;;;6.30;;
13085;SDS011;6609;49.882;8.664;2023-03-12T13:51:16;10.53;;;7.40;;
13085;SDS011;6609;49.882;8.664;2023-03-12T13:53:46;15.17;;;6.77;;
13085;SDS011;6609;49.882;8.664;2023-03-12T13:56:16;12.50;;;6.27;;
13085;SDS011;6609;49.882;8.664;2023-03-12T13:58:47;10.93;;;6.10;;
13085;SDS011;6609;49.882;8.664;2023-03-12T14:01:20;15.67;;;7.17;;
13085;SDS011;6609;49.882;8.664;2023-03-12T14:03:49;11.80;;;6.53;;
13085;SDS011;6609;49.882;8.664;2023-03-12T14:06:19;12.73;;;6.37;;
13085;SDS011;6609;49.882;8.664;2023-03-12T14:08:50;13.00;;;6.90;;
13085;SDS011;6609;49.882;8.664;2023-03-12T14:11:33;15.47;;;6.33;;
13085;SDS011;6609;49.882;8.664;2023-03-12T14:14:11;16.17;;;5.90;;
13085;SDS011;6609;49.882;8.664;2023-03-12T14:16:51;12.97;;;6.20;;
13085;SDS011;6609;49.882;8.664;2023-03-12T14:19:23;12.83;;;5.33;;
13085;SDS011;6609;49.882;8.664;2023-03-12T14:21:51;12.03;;;5.17;;
13085;SDS011;6609;49.882;8.664;2023-03-12T14:24:24;9.53;;;5.50;;
13085;SDS011;6609;49.882;8.664;2023-03-12T14:26:52;10.90;;;5.40;;
13085;SDS011;6609;49.882;8.664;2023-03-12T14:29:20;15.20;;;5.53;;
13085;SDS011;6609;49.882;8.664;2023-03-12T14:31:53;12.43;;;5.00;;
13085;SDS011;6609;49.882;8.664;2023-03-12T14:34:24;8.23;;;4.63;;
13085;SDS011;6609;49.882;8.664;2023-03-12T14:36:54;10.13;;;4.33;;
13085;SDS011;6609;49.882;8.664;2023-03-12T14:39:26;8.63;;;4.90;;
13085;SDS011;6609;49.882;8.664;2023-03-12T14:41:57;13.37;;;5.10;;
13085;SDS011;6609;49.882;8.664;2023-03-12T14:44:26;10.17;;;4.40;;
13085;SDS011;6609;49.882;8.664;2023-03-12T14:46:55;11.00;;;3.93;;
13085;SDS011;6609;49.882;8.664;2023-03-12T14:49:24;10.07;;;4.30;;
13085;SDS011;6609;49.882;8.664;2023-03-12T14:51:52;7.43;;;3.57;;
13085;SDS011;6609;49.882;8.664;2023-03-12T14:54:20;11.90;;;4.23;;
13085;SDS011;6609;49.882;8.664;2023-03-12T14:56:48;12.27;;;3.90;;
13085;SDS011;6609;49.882;8.664;2023-03-12T14:59:23;8.10;;;3.80;;
13085;SDS011;6609;49.882;8.664;2023-03-12T15:01:54;12.77;;;3.47;;
13085;SDS011;6609;49.882;8.664;2023-03-12T15:04:26;9.07;;;3.93;;
13085;SDS011;6609;49.882;8.664;2023-03-12T15:06:54;9.20;;;3.63;;
13085;SDS011;6609;49.882;8.664;2023-03-12T15:09:23;8.87;;;2.90;;
13085;SDS011;6609;49.882;8.664;2023-03-12T15:11:52;9.77;;;3.10;;
13085;SDS011;6609;49.882;8.664;2023-03-12T15:14:21;7.97;;;3.20;;
13085;SDS011;6609;49.882;8.664;2023-03-12T15:16:49;10.90;;;3.50;;
13085;SDS011;6609;49.882;8.664;2023-03-12T15:19:17;12.03;;;3.93;;
13085;SDS011;6609;49.882;8.664;2023-03-12T15:21:49;13.60;;;4.10;;
13085;SDS011;6609;49.882;8.664;2023-03-12T15:24:16;13.33;;;3.37;;
13085;SDS011;6609;49.882;8.664;2023-03-12T15:26:43;13.17;;;3.40;;
13085;SDS011;6609;49.882;8.664;2023-03-12T15:29:22;12.20;;;4.03;;